Pagrindinis puslapis
METAR-TAF:

METAR-TAF

Oro uostai :

Hatjajus, Tailandas

platuma: 06-55N, ilguma: 100-26E, Aukštis: 27 m

Dabartinis oras

Ataskaita buvo paskelbta 35 minutes, ne 01:00 UTC
Vėjas 2 kt iš Rytų/Pietryčių
Temperatūra 24°C
Drėgmė 89%
Slėgis 1009 hPa
Matomumas 10 km arba daugiau
Mažai debesys ne aukštis 2000 ft

METAR: VTSS 260100Z 12002KT 9999 FEW020 24/22 Q1009 NOSIG

Laikas: 08:35 (01:35 UTC)

Prognozė

Ataskaita buvo paskelbta 2 valandos ir 35 minutes, ne 23:00 UTC
Prognozė galioja nuo 26 metu 00 UTC su 26 metu 24 UTC
Vėjas 5 kt iš Vakarų/Pietvakarių
Matomumas: 9000 m
Mažai debesys ne aukštis 2000 ft
Tapsmas
nuo 26 metu 21 UTC su 26 metu 23 UTC
Matomumas: 3000 m
Išsisklaidę debesys ne aukštis 500 ft
rūkana

TAF: VTSS 252300Z 2600/2624 24005KT 9000 FEW020 BECMG 2621/2623 3000 BR SCT005

Orai ataskaitas ir orų prognozės (METAR, TAF).

turimą stotys yra geltonos ir raudonos taškus žemėlapyje.

Perkelti pele per norėdami pamatyti stoties vardą.

Tada spustelėkite, norėdami matyti oro stebėjimo ir prognozės.

Norėdami pakeisti žemėlapį: spustelėkite ant žalios mygtukų su juodo kryžiaus žemyn,; žalią mygtuką su brūkšneliu, jei norite nutolinti; arba žalių rodyklių gretimoms žemėlapius.


METAR-TAF: